createdAt,value
2022-10-05T00:01:38.030Z,15.85
2022-10-05T00:04:15.482Z,15.35
2022-10-05T00:06:47.065Z,14.40
2022-10-05T00:09:23.354Z,16.27
2022-10-05T00:11:53.959Z,14.25
2022-10-05T00:14:29.298Z,13.02
2022-10-05T00:16:59.375Z,13.43
2022-10-05T00:19:33.597Z,16.00
2022-10-05T00:22:09.095Z,16.38
2022-10-05T00:24:41.404Z,13.40
2022-10-05T00:27:19.578Z,16.10
2022-10-05T00:29:50.340Z,13.30
2022-10-05T00:32:20.580Z,15.10
2022-10-05T00:34:50.449Z,14.15
2022-10-05T00:37:20.434Z,18.67
2022-10-05T00:39:52.898Z,15.38
2022-10-05T00:42:39.092Z,17.95
2022-10-05T00:45:15.794Z,18.33
2022-10-05T00:47:54.690Z,16.25
2022-10-05T00:50:46.249Z,11.85
2022-10-05T00:53:29.879Z,16.50
2022-10-05T00:56:09.845Z,18.20
2022-10-05T00:58:55.301Z,15.32
2022-10-05T01:01:32.218Z,17.08
2022-10-05T01:04:10.824Z,17.42
2022-10-05T01:06:49.543Z,15.45
2022-10-05T01:09:29.821Z,17.35
2022-10-05T01:12:07.147Z,16.02
2022-10-05T01:14:44.025Z,15.95
2022-10-05T01:17:20.384Z,15.50
2022-10-05T01:20:20.139Z,17.73
2022-10-05T01:23:10.066Z,17.42
2022-10-05T01:25:50.183Z,15.52
2022-10-05T01:28:28.857Z,17.73
2022-10-05T01:31:07.953Z,17.88
2022-10-05T01:33:46.565Z,19.17
2022-10-05T01:36:23.979Z,14.60
2022-10-05T01:39:00.614Z,14.65
2022-10-05T01:41:37.296Z,15.35
2022-10-05T01:44:14.471Z,17.80
2022-10-05T01:46:48.782Z,16.73
2022-10-05T01:52:04.188Z,14.98
2022-10-05T01:54:42.896Z,15.85
2022-10-05T01:57:21.773Z,15.95
2022-10-05T02:00:09.412Z,16.90
2022-10-05T02:02:42.283Z,19.10
2022-10-05T02:05:16.584Z,20.40
2022-10-05T02:07:50.671Z,20.25
2022-10-05T02:10:26.820Z,18.85
2022-10-05T02:13:01.411Z,16.40
2022-10-05T02:20:40.917Z,17.20
2022-10-05T02:23:14.966Z,17.48
2022-10-05T02:25:49.409Z,18.77
2022-10-05T02:31:01.565Z,17.90
2022-10-05T02:33:33.547Z,17.80
2022-10-05T02:36:05.385Z,14.90
2022-10-05T02:38:42.952Z,14.57
2022-10-05T02:41:22.673Z,18.40
2022-10-05T02:44:01.782Z,19.13
2022-10-05T02:46:41.985Z,15.85
2022-10-05T02:49:22.623Z,21.23
2022-10-05T02:52:00.766Z,16.25
2022-10-05T02:54:44.719Z,15.25
2022-10-05T02:57:24.262Z,16.25
2022-10-05T02:59:59.535Z,13.35
2022-10-05T03:02:38.164Z,18.58
2022-10-05T03:05:20.123Z,13.52
2022-10-05T03:07:58.331Z,15.65
2022-10-05T03:10:37.106Z,14.02
2022-10-05T03:13:12.031Z,14.00
2022-10-05T03:16:10.171Z,14.85
2022-10-05T03:18:55.855Z,14.43
2022-10-05T03:21:41.631Z,15.82
2022-10-05T03:24:24.881Z,12.18
2022-10-05T03:27:03.617Z,13.38
2022-10-05T03:29:40.865Z,12.98
2022-10-05T03:32:18.518Z,14.18
2022-10-05T03:34:56.499Z,13.30
2022-10-05T03:37:31.898Z,14.55
2022-10-05T03:40:08.873Z,13.65
2022-10-05T03:42:49.935Z,13.93
2022-10-05T03:45:26.501Z,13.80
2022-10-05T03:48:05.230Z,17.92
2022-10-05T03:50:47.149Z,15.60
2022-10-05T03:53:21.923Z,13.32
2022-10-05T03:55:57.025Z,16.20
2022-10-05T03:58:31.184Z,17.05
2022-10-05T04:01:05.028Z,16.85
2022-10-05T04:03:39.014Z,16.90
2022-10-05T04:06:17.464Z,19.42
2022-10-05T04:08:53.275Z,17.50
2022-10-05T04:11:26.902Z,18.42
2022-10-05T04:14:03.881Z,16.73
2022-10-05T04:16:37.775Z,17.27
2022-10-05T04:19:17.929Z,18.17
2022-10-05T04:21:54.933Z,18.95
2022-10-05T04:24:34.771Z,19.52
2022-10-05T04:27:11.807Z,19.00
2022-10-05T04:29:45.720Z,19.48
2022-10-05T04:32:30.367Z,19.58
2022-10-05T04:35:09.707Z,20.40
2022-10-05T04:37:50.212Z,21.80
2022-10-05T04:40:34.064Z,18.90
2022-10-05T04:43:12.195Z,20.17
2022-10-05T04:45:54.573Z,20.10
2022-10-05T04:48:41.490Z,16.80
2022-10-05T04:51:28.930Z,19.90
2022-10-05T04:54:08.875Z,20.95
2022-10-05T04:56:44.783Z,20.20
2022-10-05T04:59:31.177Z,19.33
2022-10-05T05:02:07.995Z,16.88
2022-10-05T05:04:52.158Z,15.93
2022-10-05T05:07:34.777Z,19.33
2022-10-05T05:10:34.038Z,15.88
2022-10-05T05:13:15.353Z,16.77
2022-10-05T05:15:50.544Z,20.17
2022-10-05T05:18:42.652Z,20.15
2022-10-05T05:21:21.277Z,20.48
2022-10-05T05:23:58.591Z,16.40
2022-10-05T05:26:39.579Z,21.40
2022-10-05T05:29:17.322Z,16.70
2022-10-05T05:31:52.519Z,18.90
2022-10-05T05:34:41.729Z,22.73
2022-10-05T05:37:20.730Z,22.60
2022-10-05T05:39:58.343Z,22.15
2022-10-05T05:42:41.921Z,19.55
2022-10-05T05:45:20.301Z,17.20
2022-10-05T05:47:55.131Z,20.13
2022-10-05T05:50:36.309Z,19.33
2022-10-05T05:53:12.672Z,17.13
2022-10-05T05:55:46.578Z,19.40
2022-10-05T05:58:25.532Z,24.48
2022-10-05T06:01:00.985Z,16.98
2022-10-05T06:03:36.933Z,19.40
2022-10-05T06:06:11.027Z,18.52
2022-10-05T06:08:45.024Z,20.70
2022-10-05T06:11:20.428Z,24.02
2022-10-05T06:13:53.763Z,18.27
2022-10-05T06:16:28.390Z,22.08
2022-10-05T06:19:01.317Z,20.42
2022-10-05T06:21:38.120Z,15.85
2022-10-05T06:24:16.796Z,16.48
2022-10-05T06:27:24.038Z,14.85
2022-10-05T06:30:09.076Z,19.25
2022-10-05T06:33:01.470Z,18.20
2022-10-05T06:35:46.094Z,18.30
2022-10-05T06:38:35.368Z,15.35
2022-10-05T06:41:18.949Z,19.50
2022-10-05T06:43:59.852Z,20.27
2022-10-05T06:46:36.634Z,13.02
2022-10-05T06:49:20.043Z,14.65
2022-10-05T06:51:58.186Z,13.85
2022-10-05T06:54:43.081Z,13.38
2022-10-05T06:57:21.662Z,15.93
2022-10-05T06:59:58.921Z,16.65
2022-10-05T07:02:40.364Z,14.75
2022-10-05T07:05:35.667Z,13.70
2022-10-05T07:10:44.198Z,12.73
2022-10-05T07:13:28.711Z,13.20
2022-10-05T07:16:04.950Z,10.77
2022-10-05T07:18:51.705Z,12.02
2022-10-05T07:21:30.881Z,12.23
2022-10-05T07:24:07.293Z,11.80
2022-10-05T07:26:43.916Z,14.07
2022-10-05T07:29:25.364Z,18.50
2022-10-05T07:32:05.547Z,15.73
2022-10-05T07:34:48.395Z,14.15
2022-10-05T07:37:35.150Z,19.70
2022-10-05T07:40:13.459Z,12.00
2022-10-05T07:42:56.543Z,11.35
2022-10-05T07:45:32.295Z,12.18
2022-10-05T07:48:06.235Z,13.15
2022-10-05T07:50:46.657Z,12.70
2022-10-05T07:53:22.601Z,18.08
2022-10-05T07:55:55.749Z,11.27
2022-10-05T07:58:30.726Z,16.38
2022-10-05T08:01:09.531Z,9.90
2022-10-05T08:03:49.678Z,19.70
2022-10-05T08:06:47.327Z,10.85
2022-10-05T08:09:45.418Z,13.85
2022-10-05T08:12:33.843Z,12.90
2022-10-05T08:15:08.874Z,12.52
2022-10-05T08:17:51.121Z,11.73
2022-10-05T08:20:38.181Z,12.23
2022-10-05T08:23:22.671Z,14.25
2022-10-05T08:26:06.235Z,12.45
2022-10-05T08:28:39.937Z,10.38
2022-10-05T08:31:19.490Z,13.57
2022-10-05T08:33:59.506Z,10.52
2022-10-05T08:36:48.247Z,9.90
2022-10-05T08:39:26.484Z,12.32
2022-10-05T08:42:32.868Z,13.70
2022-10-05T08:45:27.599Z,10.63
2022-10-05T08:48:17.909Z,8.93
2022-10-05T08:51:10.328Z,9.90
2022-10-05T08:54:03.173Z,9.60
2022-10-05T08:56:42.672Z,8.93
2022-10-05T08:59:32.163Z,9.75
2022-10-05T09:02:20.361Z,9.23
2022-10-05T09:05:05.728Z,9.65
2022-10-05T09:08:04.638Z,8.90
2022-10-05T09:11:00.914Z,10.10
2022-10-05T09:13:55.842Z,13.23
2022-10-05T09:16:43.547Z,7.72
2022-10-05T09:19:54.733Z,9.10
2022-10-05T09:22:43.333Z,8.23
2022-10-05T09:25:25.691Z,7.95
2022-10-05T09:27:59.322Z,6.93
2022-10-05T09:30:43.167Z,11.32
2022-10-05T09:33:38.437Z,7.23
2022-10-05T09:36:37.511Z,7.25
2022-10-05T09:39:48.086Z,6.95
2022-10-05T09:42:48.770Z,8.38
2022-10-05T09:45:38.341Z,6.43
2022-10-05T09:48:45.203Z,7.15
2022-10-05T09:51:51.196Z,8.50
2022-10-05T09:54:34.260Z,6.55
2022-10-05T09:57:40.589Z,6.07
2022-10-05T10:00:35.071Z,6.00
2022-10-05T10:03:27.315Z,5.63
2022-10-05T10:06:27.620Z,6.70
2022-10-05T10:09:27.160Z,5.57
2022-10-05T10:12:25.830Z,7.15
2022-10-05T10:15:25.986Z,7.55
2022-10-05T10:18:27.647Z,7.03
2022-10-05T10:21:46.197Z,5.47
2022-10-05T10:24:27.443Z,5.53
2022-10-05T10:27:16.369Z,6.15
2022-10-05T10:30:06.754Z,4.03
2022-10-05T10:33:17.879Z,6.25
2022-10-05T10:35:58.175Z,5.95
2022-10-05T10:38:49.874Z,4.72
2022-10-05T10:41:53.787Z,4.97
2022-10-05T10:45:12.541Z,7.00
2022-10-05T10:47:53.148Z,7.45
2022-10-05T10:50:43.317Z,4.55
2022-10-05T10:53:38.747Z,3.33
2022-10-05T10:56:29.282Z,6.13
2022-10-05T10:59:37.306Z,5.03
2022-10-05T11:02:32.797Z,6.22
2022-10-05T11:05:30.053Z,5.32
2022-10-05T11:08:12.598Z,4.78
2022-10-05T11:11:23.656Z,4.25
2022-10-05T11:14:13.702Z,6.05
2022-10-05T11:17:12.375Z,5.97
2022-10-05T11:20:15.073Z,6.82
2022-10-05T11:22:57.525Z,10.75
2022-10-05T11:25:45.847Z,6.22
2022-10-05T11:28:36.815Z,6.55
2022-10-05T11:31:33.205Z,6.72
2022-10-05T11:34:39.002Z,7.38
2022-10-05T11:37:41.446Z,3.58
2022-10-05T11:40:36.359Z,4.03
2022-10-05T11:46:07.734Z,3.70
2022-10-05T11:48:54.183Z,3.35
2022-10-05T11:51:37.071Z,2.60
2022-10-05T11:54:52.152Z,3.10
2022-10-05T11:57:32.784Z,4.38
2022-10-05T12:00:09.526Z,2.70
2022-10-05T12:02:55.682Z,12.93
2022-10-05T12:05:30.276Z,6.60
2022-10-05T12:08:15.648Z,4.60
2022-10-05T12:10:54.555Z,5.13
2022-10-05T12:13:34.128Z,5.07
2022-10-05T12:16:09.337Z,4.65
2022-10-05T12:18:54.101Z,6.53
2022-10-05T12:21:32.210Z,4.80
2022-10-05T12:24:08.595Z,3.63
2022-10-05T12:26:44.652Z,5.35
2022-10-05T12:29:22.208Z,4.72
2022-10-05T12:32:00.720Z,3.30
2022-10-05T12:34:47.307Z,3.85
2022-10-05T12:37:40.379Z,3.67
2022-10-05T12:40:22.479Z,5.05
2022-10-05T12:43:04.698Z,3.72
2022-10-05T12:45:49.904Z,6.00
2022-10-05T12:48:37.194Z,3.38
2022-10-05T12:51:16.023Z,5.15
2022-10-05T12:53:54.995Z,4.78
2022-10-05T12:56:40.963Z,5.07
2022-10-05T12:59:22.027Z,3.90
2022-10-05T13:01:57.233Z,3.42
2022-10-05T13:04:38.377Z,4.18
2022-10-05T13:07:27.849Z,5.45
2022-10-05T13:10:11.208Z,4.82
2022-10-05T13:12:52.363Z,2.95
2022-10-05T13:15:29.824Z,4.43
2022-10-05T13:18:13.002Z,4.85
2022-10-05T13:20:47.481Z,4.93
2022-10-05T13:23:27.889Z,3.72
2022-10-05T13:26:03.006Z,4.10
2022-10-05T13:28:38.010Z,2.70
2022-10-05T13:31:15.518Z,2.95
2022-10-05T13:34:03.896Z,2.42
2022-10-05T13:36:44.857Z,6.60
2022-10-05T13:39:30.051Z,3.20
2022-10-05T13:42:07.012Z,2.80
2022-10-05T13:44:45.260Z,2.90
2022-10-05T13:47:21.717Z,3.45
2022-10-05T13:49:55.684Z,5.60
2022-10-05T13:52:36.701Z,4.43
2022-10-05T13:55:19.594Z,3.17
2022-10-05T13:57:56.419Z,7.38
2022-10-05T14:00:28.014Z,3.38
2022-10-05T14:02:59.647Z,3.40
2022-10-05T14:05:31.094Z,3.65
2022-10-05T14:08:18.655Z,4.18
2022-10-05T14:10:51.187Z,2.63
2022-10-05T14:13:28.938Z,4.03
2022-10-05T14:16:06.207Z,2.83
2022-10-05T14:18:39.196Z,2.88
2022-10-05T14:21:22.212Z,4.47
2022-10-05T14:23:52.349Z,4.57
2022-10-05T14:26:35.246Z,3.75
2022-10-05T14:29:17.964Z,7.38
2022-10-05T14:31:55.857Z,9.63
2022-10-05T14:34:35.508Z,5.18
2022-10-05T14:37:18.762Z,4.88
2022-10-05T14:39:51.939Z,3.45
2022-10-05T14:42:26.248Z,5.53
2022-10-05T14:45:14.064Z,2.90
2022-10-05T14:47:56.185Z,2.90
2022-10-05T14:50:29.759Z,5.03
2022-10-05T14:53:20.019Z,5.28
2022-10-05T14:56:18.701Z,3.83
2022-10-05T14:59:23.262Z,5.75
2022-10-05T15:02:03.013Z,4.47
2022-10-05T15:04:43.315Z,7.85
2022-10-05T15:07:27.589Z,5.65
2022-10-05T15:10:26.955Z,2.97
2022-10-05T15:12:59.556Z,4.40
2022-10-05T15:15:37.164Z,4.07
2022-10-05T15:18:27.241Z,2.30
2022-10-05T15:21:26.404Z,5.47
2022-10-05T15:24:00.059Z,5.03
2022-10-05T15:26:44.992Z,2.53
2022-10-05T15:29:31.402Z,5.07
2022-10-05T15:32:11.094Z,4.13
2022-10-05T15:34:50.909Z,4.50
2022-10-05T15:37:28.511Z,3.60
2022-10-05T15:40:00.702Z,6.25
2022-10-05T15:42:41.565Z,4.95
2022-10-05T15:45:23.471Z,4.20
2022-10-05T15:48:00.125Z,4.32
2022-10-05T15:50:36.233Z,3.72
2022-10-05T15:53:17.931Z,4.95
2022-10-05T15:55:54.649Z,5.10
2022-10-05T15:58:41.474Z,4.10
2022-10-05T16:01:15.525Z,6.53
2022-10-05T16:03:52.761Z,4.80
2022-10-05T16:06:53.103Z,3.85
2022-10-05T16:09:39.341Z,3.90
2022-10-05T16:12:28.833Z,4.70
2022-10-05T16:15:17.673Z,6.47
2022-10-05T16:18:02.389Z,5.35
2022-10-05T16:23:27.503Z,4.05
2022-10-05T16:26:10.094Z,5.70
2022-10-05T16:28:50.466Z,3.30
2022-10-05T16:31:24.854Z,7.75
2022-10-05T16:34:03.802Z,6.10
2022-10-05T16:36:47.163Z,4.20
2022-10-05T16:39:28.155Z,4.85
2022-10-05T16:42:05.438Z,11.95
2022-10-05T16:44:44.196Z,7.05
2022-10-05T16:47:37.399Z,8.60
2022-10-05T16:50:17.453Z,4.63
2022-10-05T16:52:51.780Z,5.10
2022-10-05T16:55:30.263Z,4.97
2022-10-05T16:58:02.160Z,6.47
2022-10-05T17:00:38.560Z,4.70
2022-10-05T17:03:30.110Z,5.70
2022-10-05T17:06:18.265Z,8.45
2022-10-05T17:09:11.007Z,9.65
2022-10-05T17:11:56.600Z,6.07
2022-10-05T17:14:39.626Z,5.40
2022-10-05T17:17:43.052Z,8.15
2022-10-05T17:20:26.475Z,5.18
2022-10-05T17:23:00.815Z,7.13
2022-10-05T17:28:26.730Z,5.55
2022-10-05T17:31:15.254Z,4.53
2022-10-05T17:34:28.955Z,4.53
2022-10-05T17:37:00.506Z,4.93
2022-10-05T17:39:52.111Z,3.80
2022-10-05T17:42:51.648Z,3.30
2022-10-05T17:45:55.740Z,6.95
2022-10-05T17:48:45.500Z,8.15
2022-10-05T17:51:49.129Z,2.75
2022-10-05T17:54:35.718Z,4.00
2022-10-05T17:57:24.724Z,3.50
2022-10-05T18:00:01.928Z,4.72
2022-10-05T18:02:45.831Z,5.35
2022-10-05T18:05:27.813Z,3.85
2022-10-05T18:08:39.010Z,5.80
2022-10-05T18:11:17.264Z,3.17
2022-10-05T18:13:50.323Z,5.07
2022-10-05T18:16:55.523Z,3.83
2022-10-05T18:19:31.378Z,5.80
2022-10-05T18:22:15.356Z,5.05
2022-10-05T18:25:03.897Z,6.85
2022-10-05T18:27:56.400Z,8.48
2022-10-05T18:30:28.213Z,4.22
2022-10-05T18:33:27.171Z,5.38
2022-10-05T18:36:08.549Z,8.18
2022-10-05T18:38:51.293Z,2.90
2022-10-05T18:41:34.543Z,5.10
2022-10-05T18:44:24.160Z,6.25
2022-10-05T18:47:02.884Z,3.72
2022-10-05T18:49:44.853Z,3.17
2022-10-05T18:52:26.428Z,4.10
2022-10-05T18:55:05.029Z,5.15
2022-10-05T18:57:53.134Z,3.78
2022-10-05T19:00:25.038Z,4.65
2022-10-05T19:03:01.010Z,4.88
2022-10-05T19:05:48.693Z,4.45
2022-10-05T19:08:32.818Z,3.67
2022-10-05T19:11:08.895Z,8.03
2022-10-05T19:13:46.735Z,4.25
2022-10-05T19:16:35.836Z,3.45
2022-10-05T19:19:32.415Z,4.40
2022-10-05T19:22:10.545Z,3.80
2022-10-05T19:24:59.688Z,6.05
2022-10-05T19:27:37.282Z,3.47
2022-10-05T19:30:20.134Z,5.45
2022-10-05T19:33:01.387Z,7.57
2022-10-05T19:35:40.900Z,9.27
2022-10-05T19:38:24.205Z,7.25
2022-10-05T19:41:02.851Z,7.20
2022-10-05T19:43:52.864Z,4.93
2022-10-05T19:46:31.926Z,5.80
2022-10-05T19:49:02.105Z,6.43
2022-10-05T19:51:33.974Z,7.57
2022-10-05T19:54:10.388Z,4.15
2022-10-05T19:56:52.780Z,6.43
2022-10-05T19:59:24.878Z,5.35
2022-10-05T20:01:57.448Z,4.82
2022-10-05T20:04:36.479Z,5.47
2022-10-05T20:07:10.016Z,5.57
2022-10-05T20:09:57.922Z,5.57
2022-10-05T20:12:55.891Z,6.28
2022-10-05T20:15:40.632Z,5.20
2022-10-05T20:21:07.689Z,6.30
2022-10-05T20:23:38.129Z,4.88
2022-10-05T20:26:20.642Z,7.63
2022-10-05T20:28:53.042Z,7.30
2022-10-05T20:31:22.786Z,6.47
2022-10-05T20:33:52.545Z,4.07
2022-10-05T20:36:22.285Z,7.13
2022-10-05T20:38:51.990Z,3.55
2022-10-05T20:41:21.705Z,4.40
2022-10-05T20:43:55.915Z,7.78
2022-10-05T20:46:25.793Z,7.40
2022-10-05T20:48:55.881Z,5.10
2022-10-05T20:51:28.844Z,6.43
2022-10-05T20:53:58.918Z,6.47
2022-10-05T20:56:29.570Z,4.68
2022-10-05T20:59:02.382Z,5.47
2022-10-05T21:01:32.298Z,4.53
2022-10-05T21:04:06.848Z,3.38
2022-10-05T21:06:36.692Z,6.97
2022-10-05T21:09:11.253Z,6.97
2022-10-05T21:14:14.618Z,7.25
2022-10-05T21:16:45.904Z,4.13
2022-10-05T21:19:17.058Z,6.95
2022-10-05T21:21:48.197Z,4.97
2022-10-05T21:24:18.323Z,4.13
2022-10-05T21:26:48.201Z,5.05
2022-10-05T21:29:20.478Z,5.78
2022-10-05T21:31:50.219Z,8.32
2022-10-05T21:34:20.029Z,5.65
2022-10-05T21:36:49.726Z,3.90
2022-10-05T21:39:20.276Z,4.72
2022-10-05T21:41:50.521Z,4.88
2022-10-05T21:44:22.832Z,5.15
2022-10-05T21:46:52.783Z,3.60
2022-10-05T21:49:22.800Z,6.50
2022-10-05T21:51:52.553Z,6.10
2022-10-05T21:54:24.896Z,3.72
2022-10-05T21:56:58.122Z,5.03
2022-10-05T21:59:33.952Z,3.55
2022-10-05T22:02:03.654Z,2.95
2022-10-05T22:04:33.374Z,3.67
2022-10-05T22:07:03.105Z,2.60
2022-10-05T22:09:32.999Z,5.22
2022-10-05T22:12:02.813Z,4.43
2022-10-05T22:14:35.150Z,3.67
2022-10-05T22:17:05.103Z,4.10
2022-10-05T22:19:34.962Z,6.35
2022-10-05T22:22:08.626Z,3.47
2022-10-05T22:24:40.954Z,3.22
2022-10-05T22:27:10.805Z,3.40
2022-10-05T22:29:43.642Z,6.07
2022-10-05T22:32:13.426Z,3.97
2022-10-05T22:34:43.199Z,3.38
2022-10-05T22:37:15.625Z,4.97
2022-10-05T22:39:45.753Z,4.88
2022-10-05T22:42:15.478Z,5.03
2022-10-05T22:44:47.814Z,9.82
2022-10-05T22:47:17.623Z,3.33
2022-10-05T22:49:47.389Z,3.85
2022-10-05T22:52:17.099Z,4.53
2022-10-05T22:54:46.834Z,5.22
2022-10-05T22:57:16.584Z,4.60
2022-10-05T22:59:49.613Z,4.55
2022-10-05T23:02:19.966Z,3.40
2022-10-05T23:04:49.832Z,5.53
2022-10-05T23:07:19.628Z,5.95
2022-10-05T23:09:49.497Z,5.22
2022-10-05T23:12:19.240Z,4.43
2022-10-05T23:14:51.552Z,4.85
2022-10-05T23:17:23.052Z,3.47
2022-10-05T23:19:52.770Z,8.50
2022-10-05T23:22:23.679Z,5.10
2022-10-05T23:24:54.172Z,8.20
2022-10-05T23:27:23.964Z,4.15
2022-10-05T23:29:56.253Z,6.07
2022-10-05T23:32:26.012Z,5.47
2022-10-05T23:34:55.783Z,5.13
2022-10-05T23:37:28.003Z,7.50
2022-10-05T23:39:57.720Z,4.72
2022-10-05T23:42:27.555Z,4.28
2022-10-05T23:44:59.883Z,5.03
2022-10-05T23:47:29.654Z,4.50
2022-10-05T23:49:59.455Z,5.65
2022-10-05T23:52:29.315Z,7.18
2022-10-05T23:54:59.061Z,8.25
2022-10-05T23:57:28.762Z,6.93
